Sunday, January 21, 2018, 4:55 AM GMT
Back to Local

CWEW, L'Assomption

Location: , , Canada Lat: 45.817
Local Time: 4:55 AM GMT ( 4:55 GMT) Lon: -73.433
Time Zone: GMT Elev: 68 ft

Show me the last for .
Show Coded

Time T Td Feel RH Dir Speed Gust Alt SLP Vis Weather Sky Remarks
2018-01-21 04:00 34 20 27 55 330° 9 - - 29.94 0 None
2018-01-21 03:00 36 23 28 59 310° 10 - - 29.92 0 None
2018-01-21 02:00 37 25 32 60 280° 7 - - 29.89 0 None
2018-01-21 01:00 38 25 31 60 270° 9 - - 29.87 0 None
2018-01-21 00:00 39 26 29 59 280° 12 18 - 29.84 0 Peak wind: 24 mph (21 kts) from 280° at 45 min
2018-01-20 23:00 40 29 33 65 280° 9 - - 29.80 0 Peak wind: 19 mph (17 kts) from 270° at 11 min
2018-01-20 22:00 40 30 30 67 260° 12 21 - 29.75 0 Peak wind: 25 mph (22 kts) from 250° at 22 min
2018-01-20 21:00 40 30 29 67 250° 15 24 - 29.70 0 Peak wind: 27 mph (24 kts) from 240° at 10 min
2018-01-20 20:00 40 29 29 65 240° 16 26 - 29.65 0 Peak wind: 28 mph (25 kts) from 240° at 47 min
2018-01-20 19:00 40 28 30 62 240° 14 25 - 29.62 0 Peak wind: 29 mph (26 kts) from 250° at 06 min
2018-01-20 18:00 40 28 29 62 250° 17 26 - 29.61 0 Peak wind: 29 mph (26 kts) from 250° at 19 min
2018-01-20 17:00 39 28 27 63 250° 18 32 - 29.59 0 Peak wind: 32 mph (28 kts) from 240° at 57 min
2018-01-20 16:00 38 28 27 64 240° 20 29 - 29.59 0 Peak wind: 29 mph (26 kts) from 240° at 38 min
2018-01-20 15:00 38 28 27 65 240° 17 26 - 29.57 0 Peak wind: 31 mph (27 kts) from 240° at 46 min
2018-01-20 14:00 38 27 26 65 240° 16 26 - 29.55 0 Peak wind: 29 mph (26 kts) from 230° at 17 min
2018-01-20 13:00 38 27 27 65 240° 16 23 - 29.52 0 Peak wind: 32 mph (28 kts) from 210° at 16 min
2018-01-20 12:00 38 27 26 63 230° 21 32 - 29.50 0 Peak wind: 32 mph (28 kts) from 230° at 57 min
2018-01-20 11:00 38 26 26 62 230° 18 29 - 29.48 0 Peak wind: 28 mph (25 kts) from 220° at 57 min
2018-01-20 10:00 34 26 27 71 200° 9 - - 29.45 0 None
2018-01-20 09:00 31 24 23 77 180° 9 - - 29.48 0 None
2018-01-20 08:00 30 24 22 75 190° 9 - - 29.53 0 None
2018-01-20 07:00 30 24 21 75 190° 10 - - 29.57 0 None
2018-01-20 06:00 30 24 21 76 190° 10 - - 29.60 0 None
2018-01-20 05:00 30 24 18 75 190° 12 18 - 29.63 0 None

Support USWX by starting your Amazon purchase here.